www.winti-wetter.ch
Wetterdaten: aktuell Dienstag, 19.11.2019 06:40
Datum Zeit Temp. A. Feuchte A. Luftdruck Regen Wind Richtung Richtung Sonnenschein T Zeit Regen Solar Windben
19.11.2019 06:40 -0.4 C 97 % 1017.6 hPa 0.0 l/m 0.0 km/h S-SW 208 0 min 0 min 0 W/m 0.0 km/h
19.11.2019 06:35 -0.3 C 97 % 1017.7 hPa 0.0 l/m 0.0 km/h S-SW 208 0 min 0 min 0 W/m 0.0 km/h
19.11.2019 06:30 -0.3 C 97 % 1017.6 hPa 0.0 l/m 0.0 km/h S-SW 208 0 min 0 min 0 W/m 0.0 km/h
19.11.2019 06:25 -0.2 C 97 % 1017.6 hPa 0.0 l/m 0.0 km/h S-SW 208 0 min 0 min 0 W/m 0.0 km/h
19.11.2019 06:20 -0.3 C 97 % 1017.5 hPa 0.0 l/m 0.0 km/h S-SW 208 0 min 0 min 0 W/m 0.0 km/h
19.11.2019 06:15 -0.3 C 97 % 1017.4 hPa 0.0 l/m 0.0 km/h S-SW 208 0 min 0 min 0 W/m 0.0 km/h
19.11.2019 06:10 -0.2 C 97 % 1017.4 hPa 0.0 l/m 0.0 km/h S-SW 208 0 min 0 min 0 W/m 0.0 km/h
19.11.2019 06:05 -0.3 C 97 % 1017.3 hPa 0.0 l/m 0.0 km/h S-SW 208 0 min 0 min 0 W/m 0.0 km/h
19.11.2019 06:00 -0.2 C 97 % 1017.3 hPa 0.0 l/m 0.0 km/h S-SW 208 0 min 0 min 0 W/m 0.0 km/h
19.11.2019 05:55 -0.2 C 97 % 1017.3 hPa 0.0 l/m 0.3 km/h S-SW 208 0 min 0 min 0 W/m 1.6 km/h
19.11.2019 05:50 -0.1 C 97 % 1017.2 hPa 0.0 l/m 0.0 km/h S-SW 208 0 min 0 min 0 W/m 0.0 km/h
19.11.2019 05:40 0.0 C 97 % 1017.3 hPa 0.0 l/m 0.0 km/h N 0 0 min 0 min 0 W/m 0.0 km/h
19.11.2019 05:35 0.1 C 97 % 1017.3 hPa 0.0 l/m 1.6 km/h S-SW 202 0 min 0 min 0 W/m 1.6 km/h
19.11.2019 05:30 0.1 C 97 % 1017.3 hPa 0.0 l/m 0.0 km/h S-SW 202 0 min 0 min 0 W/m 3.2 km/h
19.11.2019 05:25 0.0 C 97 % 1017.2 hPa 0.0 l/m 0.0 km/h S-SW 208 0 min 0 min 0 W/m 0.0 km/h
19.11.2019 05:20 0.0 C 97 % 1017.2 hPa 0.0 l/m 0.0 km/h S-SW 208 0 min 0 min 0 W/m 0.0 km/h
19.11.2019 05:15 0.0 C 97 % 1017.2 hPa 0.0 l/m 0.0 km/h S-SW 208 0 min 0 min 0 W/m 0.0 km/h
19.11.2019 05:10 0.1 C 97 % 1017.2 hPa 0.0 l/m 0.0 km/h S-SW 208 0 min 0 min 0 W/m 0.0 km/h
19.11.2019 05:05 0.1 C 97 % 1017.2 hPa 0.0 l/m 0.0 km/h S-SW 208 0 min 0 min 0 W/m 0.0 km/h
19.11.2019 05:00 0.1 C 97 % 1017.2 hPa 0.0 l/m 0.0 km/h S-SW 208 0 min 0 min 0 W/m 0.0 km/h
19.11.2019 04:55 0.0 C 97 % 1017.1 hPa 0.0 l/m 0.0 km/h S-SW 208 0 min 0 min 0 W/m 0.0 km/h
19.11.2019 04:50 -0.1 C 96 % 1017.0 hPa 0.0 l/m 0.2 km/h S-SW 208 0 min 0 min 0 W/m 1.6 km/h
19.11.2019 04:45 0.2 C 97 % 1017.2 hPa 0.0 l/m 1.7 km/h S-SW 208 0 min 0 min 0 W/m 3.2 km/h
19.11.2019 04:40 0.3 C 97 % 1017.2 hPa 0.0 l/m 1.0 km/h S-SW 208 0 min 5 min 0 W/m 3.2 km/h
19.11.2019 04:35 0.3 C 96 % 1017.3 hPa 0.0 l/m 0.8 km/h S-SW 208 0 min 0 min 0 W/m 3.2 km/h
19.11.2019 04:30 0.4 C 96 % 1017.3 hPa 0.0 l/m 1.2 km/h S-SW 208 0 min 0 min 0 W/m 3.2 km/h
19.11.2019 04:25 0.4 C 96 % 1017.2 hPa 0.0 l/m 0.7 km/h S-SW 208 0 min 0 min 0 W/m 3.2 km/h
19.11.2019 04:20 0.7 C 96 % 1017.2 hPa 0.0 l/m 1.7 km/h S-SW 208 0 min 0 min 0 W/m 3.2 km/h
19.11.2019 04:15 0.7 C 97 % 1017.1 hPa 0.0 l/m 1.5 km/h S-SW 208 0 min 0 min 0 W/m 3.2 km/h
19.11.2019 04:10 0.4 C 96 % 1017.1 hPa 0.0 l/m 1.5 km/h S-SW 208 0 min 0 min 0 W/m 4.8 km/h
19.11.2019 04:05 0.4 C 96 % 1017.0 hPa 0.0 l/m 0.0 km/h S-SW 208 0 min 0 min 0 W/m 0.0 km/h
19.11.2019 04:00 0.4 C 96 % 1017.0 hPa 0.0 l/m 0.0 km/h S-SW 208 0 min 0 min 0 W/m 0.0 km/h
19.11.2019 03:55 0.4 C 96 % 1017.1 hPa 0.0 l/m 0.0 km/h S-SW 208 0 min 0 min 0 W/m 0.0 km/h
19.11.2019 03:50 0.3 C 96 % 1017.2 hPa 0.0 l/m 0.3 km/h S-SW 208 0 min 0 min 0 W/m 1.6 km/h
19.11.2019 03:45 0.3 C 96 % 1017.2 hPa 0.0 l/m 2.3 km/h S-SW 208 0 min 0 min 0 W/m 3.2 km/h
19.11.2019 03:40 0.4 C 96 % 1017.1 hPa 0.0 l/m 2.0 km/h S-SW 208 0 min 0 min 0 W/m 3.2 km/h
19.11.2019 03:35 0.4 C 96 % 1017.1 hPa 0.0 l/m 0.9 km/h S-SW 208 0 min 0 min 0 W/m 3.2 km/h
19.11.2019 03:30 0.4 C 95 % 1017.2 hPa 0.0 l/m 0.6 km/h S-SW 208 0 min 0 min 0 W/m 3.2 km/h
19.11.2019 03:25 0.5 C 95 % 1017.2 hPa 0.0 l/m 0.7 km/h S-SW 208 0 min 0 min 0 W/m 1.6 km/h
19.11.2019 03:20 0.5 C 95 % 1017.2 hPa 0.0 l/m 0.0 km/h S-SW 208 0 min 0 min 0 W/m 0.0 km/h
19.11.2019 03:15 0.6 C 95 % 1017.3 hPa 0.0 l/m 0.0 km/h S-SW 208 0 min 0 min 0 W/m 0.0 km/h
19.11.2019 03:10 0.8 C 95 % 1017.3 hPa 0.0 l/m 1.4 km/h S-SW 208 0 min 0 min 0 W/m 3.2 km/h
19.11.2019 03:05 0.9 C 95 % 1017.2 hPa 0.0 l/m 0.4 km/h S-SW 208 0 min 0 min 0 W/m 3.2 km/h
19.11.2019 03:00 1.1 C 95 % 1017.2 hPa 0.0 l/m 0.0 km/h S-SW 208 0 min 0 min 0 W/m 1.6 km/h
19.11.2019 02:55 1.2 C 95 % 1017.2 hPa 0.0 l/m 0.6 km/h S-SW 208 0 min 0 min 0 W/m 1.6 km/h
19.11.2019 02:50 1.4 C 94 % 1017.3 hPa 0.0 l/m 2.4 km/h S-SW 208 0 min 0 min 0 W/m 4.8 km/h
19.11.2019 02:45 1.6 C 95 % 1017.2 hPa 0.0 l/m 2.3 km/h S-SW 208 0 min 0 min 0 W/m 6.4 km/h
19.11.2019 02:40 1.7 C 95 % 1017.3 hPa 0.0 l/m 3.1 km/h S-SW 208 0 min 0 min 0 W/m 4.8 km/h
19.11.2019 02:35 1.7 C 95 % 1017.4 hPa 0.0 l/m 3.9 km/h S-SW 208 0 min 0 min 0 W/m 6.4 km/h
19.11.2019 02:30 1.7 C 95 % 1017.4 hPa 0.0 l/m 4.3 km/h S-SW 208 0 min 0 min 0 W/m 8.0 km/h
19.11.2019 02:25 1.6 C 95 % 1017.5 hPa 0.0 l/m 4.8 km/h S-SW 202 0 min 0 min 0 W/m 8.0 km/h
19.11.2019 02:20 1.6 C 95 % 1017.4 hPa 0.0 l/m 4.4 km/h S-SW 201 0 min 0 min 0 W/m 6.4 km/h
19.11.2019 02:15 1.6 C 95 % 1017.5 hPa 0.0 l/m 3.6 km/h S-SW 200 0 min 0 min 0 W/m 6.4 km/h
19.11.2019 02:10 1.6 C 95 % 1017.4 hPa 0.0 l/m 3.7 km/h S-SW 200 0 min 0 min 0 W/m 8.0 km/h
19.11.2019 02:05 1.6 C 94 % 1017.4 hPa 0.0 l/m 2.2 km/h S-SW 200 0 min 0 min 0 W/m 4.8 km/h
19.11.2019 02:00 1.7 C 94 % 1017.4 hPa 0.0 l/m 0.5 km/h S-SW 200 0 min 0 min 0 W/m 3.2 km/h
19.11.2019 01:55 1.8 C 94 % 1017.3 hPa 0.0 l/m 1.8 km/h S-SW 200 0 min 0 min 0 W/m 3.2 km/h
19.11.2019 01:50 1.8 C 94 % 1017.2 hPa 0.0 l/m 4.5 km/h S-SW 200 0 min 0 min 0 W/m 8.0 km/h
19.11.2019 01:45 1.7 C 94 % 1017.2 hPa 0.0 l/m 5.6 km/h S-SW 198 0 min 0 min 0 W/m 9.7 km/h
19.11.2019 01:40 1.7 C 94 % 1017.2 hPa 0.0 l/m 4.1 km/h S-SW 201 0 min 0 min 0 W/m 8.0 km/h
19.11.2019 01:35 1.7 C 94 % 1017.2 hPa 0.0 l/m 3.8 km/h S-SW 201 0 min 0 min 0 W/m 8.0 km/h
19.11.2019 01:30 1.8 C 94 % 1017.1 hPa 0.0 l/m 3.1 km/h S-SW 206 0 min 0 min 0 W/m 6.4 km/h
19.11.2019 01:25 1.7 C 94 % 1017.2 hPa 0.0 l/m 4.6 km/h S-SW 205 0 min 0 min 0 W/m 8.0 km/h
19.11.2019 01:20 1.7 C 94 % 1017.1 hPa 0.0 l/m 3.8 km/h SW 214 0 min 0 min 0 W/m 6.4 km/h
19.11.2019 01:15 1.7 C 94 % 1017.1 hPa 0.0 l/m 4.5 km/h SW 216 0 min 0 min 0 W/m 6.4 km/h
19.11.2019 01:10 1.6 C 94 % 1017.2 hPa 0.0 l/m 4.1 km/h SW 215 0 min 0 min 0 W/m 6.4 km/h
19.11.2019 01:05 1.7 C 94 % 1017.2 hPa 0.0 l/m 3.0 km/h SW 216 0 min 0 min 0 W/m 4.8 km/h
19.11.2019 01:00 1.7 C 94 % 1017.3 hPa 0.0 l/m 2.5 km/h SW 216 0 min 0 min 0 W/m 4.8 km/h
19.11.2019 00:55 1.7 C 94 % 1017.4 hPa 0.0 l/m 1.7 km/h SW 216 0 min 0 min 0 W/m 3.2 km/h
19.11.2019 00:50 1.7 C 93 % 1017.3 hPa 0.0 l/m 2.3 km/h SW 216 0 min 0 min 0 W/m 4.8 km/h
19.11.2019 00:45 1.8 C 93 % 1017.5 hPa 0.0 l/m 3.3 km/h SW 216 0 min 0 min 0 W/m 6.4 km/h
19.11.2019 00:40 1.9 C 93 % 1017.4 hPa 0.0 l/m 3.6 km/h SW 218 0 min 0 min 0 W/m 6.4 km/h
19.11.2019 00:35 2.1 C 93 % 1017.4 hPa 0.0 l/m 2.9 km/h SW 219 0 min 0 min 0 W/m 4.8 km/h
19.11.2019 00:30 2.1 C 93 % 1017.4 hPa 0.0 l/m 3.7 km/h SW 219 0 min 0 min 0 W/m 6.4 km/h
19.11.2019 00:25 2.2 C 93 % 1017.3 hPa 0.0 l/m 4.9 km/h SW 217 0 min 0 min 0 W/m 8.0 km/h
19.11.2019 00:21 2.2 C 93 % 1017.3 hPa 0.0 l/m 4.4 km/h SW 218 0 min 0 min 0 W/m 8.0 km/h
19.11.2019 00:15 2.2 C 93 % 1017.2 hPa 0.0 l/m 4.6 km/h SW 220 0 min 0 min 0 W/m 6.4 km/h
19.11.2019 00:10 2.3 C 92 % 1017.2 hPa 0.0 l/m 4.0 km/h SW 221 0 min 0 min 0 W/m 6.4 km/h
19.11.2019 00:05 2.3 C 93 % 1017.2 hPa 0.0 l/m 4.1 km/h SW 221 0 min 0 min 0 W/m 8.0 km/h
19.11.2019 00:00 2.3 C 92 % 1017.2 hPa 0.0 l/m 5.2 km/h SW 221 0 min 0 min 0 W/m 8.0 km/h
18.11.2019 23:55 2.3 C 92 % 1017.2 hPa 0.0 l/m 4.2 km/h SW 223 0 min 0 min 0 W/m 6.4 km/h
18.11.2019 23:50 2.4 C 92 % 1017.2 hPa 0.0 l/m 4.0 km/h SW 225 0 min 0 min 0 W/m 6.4 km/h
18.11.2019 23:45 2.4 C 92 % 1017.3 hPa 0.0 l/m 5.1 km/h SW 224 0 min 0 min 0 W/m 8.0 km/h
18.11.2019 23:40 2.4 C 92 % 1017.2 hPa 0.0 l/m 4.9 km/h SW 225 0 min 0 min 0 W/m 8.0 km/h
18.11.2019 23:35 2.5 C 92 % 1017.3 hPa 0.0 l/m 4.6 km/h SW 227 0 min 0 min 0 W/m 6.4 km/h
18.11.2019 23:30 2.5 C 92 % 1017.3 hPa 0.0 l/m 4.3 km/h SW 227 0 min 0 min 0 W/m 6.4 km/h
18.11.2019 23:25 2.6 C 92 % 1017.4 hPa 0.0 l/m 4.5 km/h SW 227 0 min 0 min 0 W/m 6.4 km/h
18.11.2019 23:20 2.6 C 92 % 1017.4 hPa 0.0 l/m 4.4 km/h SW 227 0 min 0 min 0 W/m 6.4 km/h
18.11.2019 23:15 2.6 C 92 % 1017.4 hPa 0.0 l/m 3.7 km/h SW 227 0 min 0 min 0 W/m 6.4 km/h
18.11.2019 23:10 2.7 C 92 % 1017.5 hPa 0.0 l/m 3.8 km/h SW 227 0 min 0 min 0 W/m 6.4 km/h
18.11.2019 23:05 2.7 C 92 % 1017.5 hPa 0.0 l/m 3.5 km/h SW 227 0 min 0 min 0 W/m 4.8 km/h
18.11.2019 23:00 2.7 C 92 % 1017.5 hPa 0.0 l/m 2.7 km/h SW 227 0 min 0 min 0 W/m 4.8 km/h
18.11.2019 22:55 2.7 C 92 % 1017.5 hPa 0.0 l/m 3.6 km/h SW 227 0 min 0 min 0 W/m 6.4 km/h
18.11.2019 22:50 2.8 C 92 % 1017.5 hPa 0.0 l/m 2.8 km/h SW 227 0 min 0 min 0 W/m 4.8 km/h
18.11.2019 22:45 2.7 C 92 % 1017.5 hPa 0.0 l/m 2.8 km/h SW 227 0 min 0 min 0 W/m 4.8 km/h
18.11.2019 22:40 2.8 C 92 % 1017.5 hPa 0.0 l/m 4.4 km/h SW 227 0 min 0 min 0 W/m 6.4 km/h
18.11.2019 22:35 2.8 C 92 % 1017.6 hPa 0.0 l/m 3.4 km/h SW 232 0 min 0 min 0 W/m 6.4 km/h
18.11.2019 22:30 2.7 C 92 % 1017.5 hPa 0.0 l/m 2.4 km/h SW 233 0 min 0 min 0 W/m 4.8 km/h
18.11.2019 22:25 2.8 C 91 % 1017.5 hPa 0.0 l/m 3.1 km/h SW 233 0 min 0 min 0 W/m 4.8 km/h
18.11.2019 22:20 2.9 C 91 % 1017.4 hPa 0.0 l/m 3.0 km/h SW 233 0 min 0 min 0 W/m 4.8 km/h
18.11.2019 22:15 2.9 C 91 % 1017.4 hPa 0.0 l/m 2.7 km/h SW 233 0 min 0 min 0 W/m 4.8 km/h
18.11.2019 22:10 2.9 C 91 % 1017.4 hPa 0.0 l/m 3.5 km/h SW 233 0 min 0 min 0 W/m 6.4 km/h
18.11.2019 22:05 3.0 C 91 % 1017.4 hPa 0.0 l/m 3.1 km/h SW 233 0 min 0 min 0 W/m 8.0 km/h
18.11.2019 22:00 3.1 C 90 % 1017.3 hPa 0.0 l/m 2.1 km/h W-SW 255 0 min 0 min 0 W/m 4.8 km/h
18.11.2019 21:55 3.1 C 91 % 1017.2 hPa 0.0 l/m 2.8 km/h W-SW 255 0 min 0 min 0 W/m 4.8 km/h
18.11.2019 21:50 3.1 C 90 % 1017.2 hPa 0.0 l/m 2.6 km/h W-SW 255 0 min 0 min 0 W/m 4.8 km/h
18.11.2019 21:45 3.2 C 90 % 1017.1 hPa 0.0 l/m 3.1 km/h W-SW 255 0 min 0 min 0 W/m 4.8 km/h
18.11.2019 21:40 3.2 C 90 % 1017.1 hPa 0.0 l/m 2.5 km/h W-SW 255 0 min 0 min 0 W/m 4.8 km/h
18.11.2019 21:35 3.2 C 89 % 1017.2 hPa 0.0 l/m 1.8 km/h W-SW 255 0 min 0 min 0 W/m 3.2 km/h
18.11.2019 21:30 3.2 C 88 % 1017.2 hPa 0.0 l/m 2.0 km/h W-SW 255 0 min 0 min 0 W/m 4.8 km/h
18.11.2019 21:25 3.3 C 88 % 1017.1 hPa 0.0 l/m 2.7 km/h W-SW 255 0 min 0 min 0 W/m 4.8 km/h
18.11.2019 21:20 3.3 C 88 % 1017.1 hPa 0.0 l/m 3.2 km/h W-SW 255 0 min 0 min 0 W/m 6.4 km/h
18.11.2019 21:15 3.3 C 87 % 1017.0 hPa 0.0 l/m 2.8 km/h W-SW 255 0 min 0 min 0 W/m 4.8 km/h
18.11.2019 21:10 3.4 C 87 % 1016.9 hPa 0.0 l/m 3.2 km/h W-SW 255 0 min 0 min 0 W/m 4.8 km/h
18.11.2019 21:05 3.5 C 87 % 1017.0 hPa 0.0 l/m 3.8 km/h W-SW 255 0 min 0 min 0 W/m 6.4 km/h
18.11.2019 21:00 3.6 C 87 % 1016.9 hPa 0.0 l/m 3.9 km/h W-SW 255 0 min 0 min 0 W/m 6.4 km/h
18.11.2019 20:55 3.6 C 87 % 1016.9 hPa 0.0 l/m 3.4 km/h W-SW 255 0 min 0 min 0 W/m 6.4 km/h
18.11.2019 20:50 3.6 C 87 % 1016.8 hPa 0.0 l/m 3.2 km/h W-SW 255 0 min 0 min 0 W/m 4.8 km/h
18.11.2019 20:45 3.7 C 87 % 1016.8 hPa 0.0 l/m 3.1 km/h W-SW 256 0 min 0 min 0 W/m 6.4 km/h
18.11.2019 20:40 3.8 C 87 % 1016.7 hPa 0.0 l/m 3.2 km/h W-SW 256 0 min 0 min 0 W/m 6.4 km/h
18.11.2019 20:35 3.8 C 87 % 1016.7 hPa 0.0 l/m 2.8 km/h W-SW 256 0 min 0 min 0 W/m 4.8 km/h
18.11.2019 20:30 3.8 C 87 % 1016.7 hPa 0.0 l/m 3.6 km/h W-SW 255 0 min 0 min 0 W/m 6.4 km/h
18.11.2019 20:25 3.9 C 87 % 1016.7 hPa 0.0 l/m 2.6 km/h W-SW 255 0 min 0 min 0 W/m 4.8 km/h
18.11.2019 20:20 3.9 C 87 % 1016.7 hPa 0.0 l/m 2.8 km/h W-SW 255 0 min 0 min 0 W/m 4.8 km/h
18.11.2019 20:15 3.9 C 87 % 1016.6 hPa 0.0 l/m 3.3 km/h W-SW 255 0 min 0 min 0 W/m 6.4 km/h
18.11.2019 20:10 3.8 C 88 % 1016.6 hPa 0.0 l/m 4.1 km/h W-SW 256 0 min 0 min 0 W/m 6.4 km/h
18.11.2019 20:05 3.8 C 88 % 1016.5 hPa 0.0 l/m 3.6 km/h W-SW 256 0 min 0 min 0 W/m 8.0 km/h
18.11.2019 20:00 3.9 C 87 % 1016.4 hPa 0.0 l/m 3.9 km/h W-SW 254 0 min 0 min 0 W/m 6.4 km/h
18.11.2019 19:55 4.0 C 87 % 1016.4 hPa 0.0 l/m 3.3 km/h W-SW 250 0 min 0 min 0 W/m 6.4 km/h
18.11.2019 19:50 4.1 C 87 % 1016.3 hPa 0.0 l/m 3.4 km/h W-SW 250 0 min 0 min 0 W/m 6.4 km/h
18.11.2019 19:45 4.1 C 87 % 1016.2 hPa 0.0 l/m 4.4 km/h W-SW 249 0 min 0 min 0 W/m 9.7 km/h
18.11.2019 19:40 4.0 C 88 % 1016.2 hPa 0.0 l/m 2.9 km/h W 261 0 min 0 min 0 W/m 4.8 km/h
18.11.2019 19:35 4.0 C 88 % 1016.1 hPa 0.0 l/m 3.6 km/h W 261 0 min 0 min 0 W/m 6.4 km/h
18.11.2019 19:30 4.0 C 88 % 1016.1 hPa 0.0 l/m 2.9 km/h W 260 0 min 0 min 0 W/m 6.4 km/h
18.11.2019 19:25 3.9 C 88 % 1015.9 hPa 0.0 l/m 1.6 km/h W 259 0 min 0 min 0 W/m 3.2 km/h
18.11.2019 19:20 3.9 C 88 % 1015.9 hPa 0.0 l/m 3.1 km/h W 259 0 min 0 min 0 W/m 6.4 km/h
18.11.2019 19:15 3.8 C 88 % 1015.7 hPa 0.0 l/m 3.2 km/h W 259 0 min 0 min 0 W/m 6.4 km/h
18.11.2019 19:10 3.8 C 88 % 1015.6 hPa 0.0 l/m 2.6 km/h SW 220 0 min 0 min 0 W/m 4.8 km/h
18.11.2019 19:05 3.7 C 88 % 1015.5 hPa 0.0 l/m 2.8 km/h SW 220 0 min 0 min 0 W/m 4.8 km/h
18.11.2019 19:00 3.8 C 88 % 1015.4 hPa 0.0 l/m 2.2 km/h SW 220 0 min 0 min 0 W/m 3.2 km/h
18.11.2019 18:55 3.9 C 87 % 1015.4 hPa 0.0 l/m 2.1 km/h SW 220 0 min 0 min 0 W/m 3.2 km/h
18.11.2019 18:50 4.1 C 87 % 1015.3 hPa 0.0 l/m 2.3 km/h SW 220 0 min 0 min 0 W/m 3.2 km/h
18.11.2019 18:45 3.9 C 87 % 1015.2 hPa 0.0 l/m 1.8 km/h SW 220 0 min 0 min 0 W/m 3.2 km/h
18.11.2019 18:40 3.9 C 87 % 1015.1 hPa 0.0 l/m 2.4 km/h SW 220 0 min 0 min 0 W/m 4.8 km/h
18.11.2019 18:35 3.9 C 88 % 1015.1 hPa 0.0 l/m 2.9 km/h SW 220 0 min 0 min 0 W/m 4.8 km/h
18.11.2019 18:30 4.0 C 87 % 1015.1 hPa 0.0 l/m 2.3 km/h SW 220 0 min 0 min 0 W/m 3.2 km/h
18.11.2019 18:25 4.1 C 86 % 1015.0 hPa 0.0 l/m 2.2 km/h SW 220 0 min 0 min 0 W/m 3.2 km/h
18.11.2019 18:20 4.2 C 86 % 1014.9 hPa 0.0 l/m 2.1 km/h SW 220 0 min 0 min 0 W/m 3.2 km/h
18.11.2019 18:15 4.3 C 85 % 1014.8 hPa 0.0 l/m 2.1 km/h SW 220 0 min 0 min 0 W/m 3.2 km/h
18.11.2019 18:10 4.4 C 84 % 1014.7 hPa 0.0 l/m 2.6 km/h SW 220 0 min 0 min 0 W/m 4.8 km/h
18.11.2019 18:05 4.7 C 83 % 1014.7 hPa 0.0 l/m 2.2 km/h SW 220 0 min 0 min 0 W/m 3.2 km/h
18.11.2019 18:00 4.9 C 82 % 1014.6 hPa 0.0 l/m 1.6 km/h SW 220 0 min 0 min 0 W/m 3.2 km/h
18.11.2019 17:55 5.2 C 81 % 1014.6 hPa 0.0 l/m 1.8 km/h SW 220 0 min 0 min 0 W/m 3.2 km/h
18.11.2019 17:50 5.4 C 79 % 1014.6 hPa 0.0 l/m 1.9 km/h SW 220 0 min 0 min 0 W/m 3.2 km/h
18.11.2019 17:45 5.7 C 78 % 1014.5 hPa 0.0 l/m 3.2 km/h SW 220 0 min 0 min 0 W/m 6.4 km/h
18.11.2019 17:40 5.7 C 78 % 1014.5 hPa 0.0 l/m 5.3 km/h S-SW 213 0 min 0 min 0 W/m 9.7 km/h
18.11.2019 17:35 5.8 C 78 % 1014.5 hPa 0.0 l/m 6.0 km/h S-SW 198 0 min 0 min 0 W/m 9.7 km/h
18.11.2019 17:30 5.8 C 78 % 1014.5 hPa 0.0 l/m 4.2 km/h S-SW 201 0 min 0 min 0 W/m 9.7 km/h
18.11.2019 17:25 5.9 C 76 % 1014.5 hPa 0.0 l/m 4.8 km/h SW 223 0 min 0 min 0 W/m 9.7 km/h
18.11.2019 17:20 5.9 C 76 % 1014.5 hPa 0.0 l/m 6.0 km/h SW 228 0 min 0 min 0 W/m 12.9 km/h
18.11.2019 17:15 5.9 C 76 % 1014.5 hPa 0.0 l/m 5.5 km/h W-SW 245 0 min 0 min 0 W/m 8.0 km/h
18.11.2019 17:10 5.9 C 76 % 1014.5 hPa 0.0 l/m 6.8 km/h W-SW 241 0 min 0 min 0 W/m 12.9 km/h
18.11.2019 17:05 5.8 C 78 % 1014.5 hPa 0.0 l/m 6.4 km/h SW 229 0 min 0 min 0 W/m 12.9 km/h
18.11.2019 17:00 5.8 C 78 % 1014.5 hPa 0.0 l/m 5.9 km/h SW 215 0 min 0 min 0 W/m 11.3 km/h
18.11.2019 16:55 5.7 C 78 % 1014.5 hPa 0.0 l/m 6.5 km/h SW 219 0 min 0 min 4 W/m 11.3 km/h
18.11.2019 16:50 5.6 C 78 % 1014.5 hPa 0.0 l/m 6.8 km/h S-SW 208 0 min 0 min 6 W/m 12.9 km/h
18.11.2019 16:45 5.7 C 78 % 1014.4 hPa 0.0 l/m 4.8 km/h SW 221 0 min 0 min 9 W/m 9.7 km/h
18.11.2019 16:40 5.7 C 76 % 1014.4 hPa 0.0 l/m 3.4 km/h W-SW 238 0 min 0 min 13 W/m 6.4 km/h
18.11.2019 16:35 5.7 C 76 % 1014.2 hPa 0.0 l/m 3.2 km/h W-SW 243 0 min 0 min 19 W/m 6.4 km/h
18.11.2019 16:30 5.9 C 75 % 1014.1 hPa 0.0 l/m 3.7 km/h W-SW 243 5 min 0 min 25 W/m 6.4 km/h
18.11.2019 16:25 6.2 C 74 % 1013.9 hPa 0.0 l/m 4.5 km/h SW 233 5 min 0 min 31 W/m 9.7 km/h
18.11.2019 16:20 6.1 C 74 % 1013.8 hPa 0.0 l/m 6.5 km/h SW 236 5 min 0 min 32 W/m 12.9 km/h
18.11.2019 16:15 6.2 C 74 % 1013.8 hPa 0.0 l/m 5.3 km/h SW 227 5 min 0 min 37 W/m 12.9 km/h
18.11.2019 16:10 6.3 C 73 % 1013.9 hPa 0.0 l/m 3.6 km/h S-SW 209 0 min 0 min 34 W/m 8.0 km/h
18.11.2019 16:05 6.4 C 73 % 1013.9 hPa 0.0 l/m 3.3 km/h W 259 0 min 0 min 30 W/m 6.4 km/h
18.11.2019 16:00 6.5 C 73 % 1014.0 hPa 0.0 l/m 7.6 km/h W 260 0 min 0 min 34 W/m 16.1 km/h
18.11.2019 15:55 6.6 C 72 % 1014.1 hPa 0.0 l/m 7.2 km/h W-SW 246 0 min 0 min 42 W/m 14.5 km/h
18.11.2019 15:50 6.6 C 73 % 1013.9 hPa 0.0 l/m 3.6 km/h SW 218 5 min 0 min 74 W/m 8.0 km/h
18.11.2019 15:45 6.6 C 73 % 1013.8 hPa 0.0 l/m 6.8 km/h S-SW 209 5 min 0 min 87 W/m 14.5 km/h
18.11.2019 15:40 6.5 C 74 % 1013.6 hPa 0.0 l/m 5.6 km/h W 268 5 min 0 min 84 W/m 11.3 km/h
18.11.2019 15:35 6.6 C 74 % 1013.4 hPa 0.0 l/m 6.2 km/h SW 225 0 min 0 min 86 W/m 11.3 km/h
18.11.2019 15:30 6.6 C 74 % 1013.3 hPa 0.0 l/m 8.0 km/h W-SW 242 0 min 0 min 80 W/m 16.1 km/h
18.11.2019 15:25 6.6 C 74 % 1013.3 hPa 0.0 l/m 6.9 km/h SW 234 5 min 0 min 113 W/m 14.5 km/h
18.11.2019 15:20 6.6 C 75 % 1013.3 hPa 0.0 l/m 5.2 km/h S-SW 203 0 min 0 min 53 W/m 11.3 km/h
18.11.2019 15:15 6.6 C 75 % 1013.2 hPa 0.0 l/m 7.7 km/h W-SW 254 0 min 0 min 56 W/m 14.5 km/h
18.11.2019 15:10 6.7 C 75 % 1013.0 hPa 0.0 l/m 4.8 km/h W 263 0 min 0 min 66 W/m 9.7 km/h
18.11.2019 15:05 6.7 C 75 % 1013.0 hPa 0.0 l/m 7.0 km/h W-SW 240 5 min 0 min 160 W/m 11.3 km/h
18.11.2019 15:00 6.8 C 75 % 1013.0 hPa 0.0 l/m 9.0 km/h S-SW 202 5 min 0 min 215 W/m 16.1 km/h
18.11.2019 14:55 6.8 C 75 % 1012.9 hPa 0.0 l/m 7.9 km/h W-SW 245 5 min 0 min 213 W/m 17.7 km/h
18.11.2019 14:50 6.8 C 74 % 1013.0 hPa 0.0 l/m 11.6 km/h W-SW 256 5 min 0 min 183 W/m 22.5 km/h
18.11.2019 14:45 6.8 C 75 % 1013.1 hPa 0.0 l/m 9.4 km/h W-SW 248 5 min 0 min 158 W/m 17.7 km/h
18.11.2019 14:40 6.8 C 76 % 1013.1 hPa 0.0 l/m 8.6 km/h W 273 5 min 0 min 177 W/m 19.3 km/h
18.11.2019 14:35 6.8 C 76 % 1013.0 hPa 0.0 l/m 6.5 km/h W-NW 286 0 min 0 min 139 W/m 14.5 km/h
18.11.2019 14:30 6.8 C 76 % 1013.0 hPa 0.0 l/m 6.5 km/h W 261 0 min 0 min 90 W/m 12.9 km/h
18.11.2019 14:25 6.8 C 76 % 1012.9 hPa 0.0 l/m 5.1 km/h S 186 0 min 0 min 94 W/m 11.3 km/h
18.11.2019 14:20 6.8 C 76 % 1013.0 hPa 0.0 l/m 8.4 km/h W-SW 248 0 min 0 min 97 W/m 17.7 km/h
18.11.2019 14:15 6.7 C 76 % 1013.0 hPa 0.0 l/m 6.4 km/h S 182 0 min 0 min 91 W/m 17.7 km/h
18.11.2019 14:10 6.7 C 76 % 1012.9 hPa 0.0 l/m 7.3 km/h S-SW 207 0 min 0 min 65 W/m 14.5 km/h
18.11.2019 14:05 6.7 C 76 % 1012.9 hPa 0.0 l/m 8.3 km/h SW 217 0 min 0 min 86 W/m 16.1 km/h
18.11.2019 14:00 6.7 C 76 % 1012.9 hPa 0.0 l/m 9.3 km/h SW 216 0 min 0 min 109 W/m 22.5 km/h
18.11.2019 13:55 6.6 C 76 % 1012.8 hPa 0.0 l/m 9.3 km/h SW 217 0 min 0 min 101 W/m 17.7 km/h
18.11.2019 13:50 6.6 C 78 % 1012.8 hPa 0.0 l/m 8.3 km/h SW 218 0 min 0 min 105 W/m 16.1 km/h
18.11.2019 13:45 6.5 C 78 % 1012.7 hPa 0.0 l/m 8.6 km/h SW 230 0 min 0 min 103 W/m 16.1 km/h
18.11.2019 13:40 6.5 C 78 % 1012.7 hPa 0.0 l/m 8.2 km/h S-SW 197 0 min 0 min 94 W/m 17.7 km/h
18.11.2019 13:35 6.5 C 79 % 1012.6 hPa 0.0 l/m 7.3 km/h S-SW 211 0 min 0 min 104 W/m 17.7 km/h
18.11.2019 13:30 6.4 C 79 % 1012.5 hPa 0.0 l/m 10.0 km/h S-SW 208 0 min 0 min 104 W/m 20.9 km/h
18.11.2019 13:25 6.6 C 78 % 1012.5 hPa 0.0 l/m 8.2 km/h SW 232 0 min 0 min 123 W/m 16.1 km/h
18.11.2019 13:20 6.7 C 79 % 1012.4 hPa 0.0 l/m 9.7 km/h S-SW 208 0 min 0 min 168 W/m 16.1 km/h
18.11.2019 13:15 6.9 C 79 % 1012.4 hPa 0.0 l/m 10.5 km/h S 176 5 min 0 min 213 W/m 20.9 km/h
18.11.2019 13:10 6.9 C 78 % 1012.4 hPa 0.0 l/m 8.6 km/h S-SW 200 5 min 0 min 353 W/m 17.7 km/h
18.11.2019 13:05 6.8 C 78 % 1012.4 hPa 0.0 l/m 9.5 km/h S-SW 202 5 min 0 min 286 W/m 17.7 km/h
18.11.2019 13:00 6.4 C 81 % 1012.4 hPa 0.0 l/m 8.2 km/h SW 234 0 min 0 min 203 W/m 14.5 km/h
18.11.2019 12:55 6.2 C 81 % 1012.3 hPa 0.0 l/m 10.7 km/h W-SW 240 0 min 0 min 132 W/m 24.1 km/h
18.11.2019 12:50 6.1 C 81 % 1012.3 hPa 0.0 l/m 9.4 km/h S-SW 198 0 min 0 min 111 W/m 20.9 km/h
18.11.2019 12:45 6.1 C 81 % 1012.3 hPa 0.0 l/m 9.0 km/h S-SW 206 0 min 0 min 100 W/m 17.7 km/h
18.11.2019 12:40 6.0 C 81 % 1012.4 hPa 0.0 l/m 10.5 km/h W-SW 244 0 min 0 min 107 W/m 22.5 km/h
18.11.2019 12:35 6.0 C 81 % 1012.4 hPa 0.0 l/m 6.1 km/h W-SW 244 0 min 0 min 76 W/m 14.5 km/h
18.11.2019 12:30 5.9 C 82 % 1012.4 hPa 0.0 l/m 4.3 km/h SW 216 0 min 0 min 52 W/m 9.7 km/h
18.11.2019 12:25 5.9 C 81 % 1012.3 hPa 0.0 l/m 7.7 km/h W-SW 241 0 min 0 min 46 W/m 12.9 km/h
18.11.2019 12:20 6.1 C 81 % 1012.2 hPa 0.0 l/m 6.2 km/h W-SW 244 0 min 0 min 72 W/m 12.9 km/h
18.11.2019 12:15 6.2 C 82 % 1012.2 hPa 0.0 l/m 6.1 km/h SW 235 0 min 0 min 101 W/m 14.5 km/h
18.11.2019 12:10 6.2 C 83 % 1012.2 hPa 0.0 l/m 3.7 km/h SW 224 0 min 0 min 137 W/m 6.4 km/h
18.11.2019 12:05 6.1 C 83 % 1012.2 hPa 0.0 l/m 7.4 km/h W-SW 244 0 min 0 min 156 W/m 14.5 km/h
18.11.2019 12:00 6.0 C 83 % 1012.2 hPa 0.0 l/m 5.3 km/h W-SW 246 0 min 0 min 204 W/m 12.9 km/h
18.11.2019 11:55 5.7 C 84 % 1012.2 hPa 0.0 l/m 6.9 km/h SW 229 0 min 0 min 198 W/m 14.5 km/h
18.11.2019 11:50 5.4 C 84 % 1012.3 hPa 0.0 l/m 4.6 km/h S-SW 196 0 min 0 min 77 W/m 11.3 km/h
18.11.2019 11:45 5.4 C 84 % 1012.4 hPa 0.0 l/m 6.4 km/h W-NW 292 0 min 0 min 42 W/m 16.1 km/h
18.11.2019 11:40 5.4 C 84 % 1012.4 hPa 0.0 l/m 6.9 km/h W-SW 258 0 min 0 min 47 W/m 16.1 km/h
18.11.2019 11:35 5.4 C 84 % 1012.4 hPa 0.0 l/m 6.5 km/h SW 216 0 min 0 min 66 W/m 16.1 km/h
18.11.2019 11:30 5.4 C 84 % 1012.4 hPa 0.0 l/m 10.0 km/h W-SW 242 0 min 0 min 58 W/m 20.9 km/h
18.11.2019 11:25 5.4 C 84 % 1012.4 hPa 0.0 l/m 7.1 km/h SW 227 0 min 0 min 69 W/m 14.5 km/h
18.11.2019 11:20 5.4 C 84 % 1012.4 hPa 0.0 l/m 5.9 km/h W 259 0 min 0 min 66 W/m 12.9 km/h
18.11.2019 11:15 5.4 C 83 % 1012.3 hPa 0.0 l/m 8.5 km/h SW 236 0 min 0 min 58 W/m 17.7 km/h
18.11.2019 11:10 5.4 C 84 % 1012.2 hPa 0.0 l/m 7.7 km/h SW 226 0 min 0 min 78 W/m 16.1 km/h
18.11.2019 11:05 5.4 C 83 % 1012.3 hPa 0.0 l/m 7.7 km/h W-NW 297 0 min 0 min 62 W/m 22.5 km/h
18.11.2019 11:00 5.3 C 83 % 1012.2 hPa 0.0 l/m 6.7 km/h W 276 0 min 0 min 78 W/m 16.1 km/h
18.11.2019 10:55 5.4 C 83 % 1012.1 hPa 0.0 l/m 9.7 km/h S-SW 213 0 min 0 min 77 W/m 25.7 km/h
18.11.2019 10:50 5.4 C 83 % 1012.1 hPa 0.0 l/m 6.6 km/h W 265 0 min 0 min 84 W/m 16.1 km/h
18.11.2019 10:45 5.5 C 83 % 1012.0 hPa 0.0 l/m 9.1 km/h W-SW 243 0 min 0 min 85 W/m 20.9 km/h
18.11.2019 10:40 5.6 C 82 % 1011.9 hPa 0.0 l/m 7.6 km/h SW 221 0 min 0 min 70 W/m 16.1 km/h
18.11.2019 10:35 5.9 C 82 % 1011.9 hPa 0.0 l/m 7.8 km/h S-SW 202 5 min 0 min 233 W/m 16.1 km/h
18.11.2019 10:30 5.7 C 83 % 1011.8 hPa 0.0 l/m 7.6 km/h S-SW 205 5 min 0 min 299 W/m 14.5 km/h
18.11.2019 10:25 5.2 C 84 % 1011.8 hPa 0.0 l/m 7.7 km/h W 267 0 min 0 min 129 W/m 14.5 km/h
18.11.2019 10:20 5.0 C 85 % 1011.7 hPa 0.0 l/m 9.6 km/h W-SW 239 0 min 0 min 87 W/m 24.1 km/h
18.11.2019 10:15 4.9 C 85 % 1011.6 hPa 0.0 l/m 9.0 km/h W 263 0 min 0 min 71 W/m 20.9 km/h
18.11.2019 10:10 4.9 C 84 % 1011.6 hPa 0.0 l/m 6.9 km/h W-SW 251 0 min 0 min 66 W/m 14.5 km/h
18.11.2019 10:05 5.0 C 84 % 1011.5 hPa 0.0 l/m 9.3 km/h W-SW 241 0 min 0 min 73 W/m 16.1 km/h
18.11.2019 10:00 5.1 C 84 % 1011.5 hPa 0.0 l/m 11.3 km/h SW 229 0 min 0 min 95 W/m 20.9 km/h
18.11.2019 09:55 5.1 C 84 % 1011.5 hPa 0.0 l/m 12.5 km/h W-SW 248 0 min 0 min 122 W/m 24.1 km/h
18.11.2019 09:50 5.1 C 84 % 1011.4 hPa 0.0 l/m 13.4 km/h S-SO 165 0 min 0 min 125 W/m 24.1 km/h
18.11.2019 09:45 5.0 C 84 % 1011.5 hPa 0.0 l/m 12.2 km/h W-SW 242 0 min 0 min 122 W/m 20.9 km/h
18.11.2019 09:40 4.9 C 84 % 1011.6 hPa 0.0 l/m 10.6 km/h W-SW 240 0 min 0 min 109 W/m 27.4 km/h
18.11.2019 09:35 4.9 C 84 % 1011.5 hPa 0.0 l/m 10.4 km/h W 259 0 min 0 min 99 W/m 19.3 km/h
18.11.2019 09:30 4.8 C 84 % 1011.5 hPa 0.0 l/m 9.7 km/h W-SW 243 0 min 0 min 90 W/m 19.3 km/h
18.11.2019 09:25 4.8 C 85 % 1011.5 hPa 0.0 l/m 8.4 km/h S-SW 198 0 min 0 min 76 W/m 22.5 km/h
18.11.2019 09:20 4.8 C 84 % 1011.4 hPa 0.0 l/m 12.7 km/h SW 233 0 min 0 min 72 W/m 29.0 km/h
18.11.2019 09:15 4.8 C 84 % 1011.4 hPa 0.0 l/m 13.8 km/h W-SW 242 0 min 0 min 84 W/m 27.4 km/h
18.11.2019 09:10 4.8 C 84 % 1011.3 hPa 0.0 l/m 11.6 km/h W-SW 251 0 min 0 min 93 W/m 24.1 km/h
18.11.2019 09:05 4.8 C 84 % 1011.2 hPa 0.0 l/m 14.6 km/h SW 236 0 min 0 min 84 W/m 37.0 km/h
18.11.2019 09:00 4.8 C 85 % 1011.1 hPa 0.0 l/m 12.8 km/h W 261 0 min 0 min 79 W/m 20.9 km/h
18.11.2019 08:55 4.9 C 85 % 1011.1 hPa 0.0 l/m 8.7 km/h SW 224 0 min 0 min 93 W/m 22.5 km/h
18.11.2019 08:50 4.9 C 84 % 1011.0 hPa 0.0 l/m 12.8 km/h SW 221 5 min 0 min 100 W/m 25.7 km/h
18.11.2019 08:45 4.8 C 85 % 1010.9 hPa 0.0 l/m 13.5 km/h SW 225 0 min 0 min 87 W/m 25.7 km/h
18.11.2019 08:40 4.8 C 85 % 1010.9 hPa 0.0 l/m 9.8 km/h W-SW 248 0 min 0 min 81 W/m 24.1 km/h
18.11.2019 08:35 4.8 C 85 % 1010.8 hPa 0.0 l/m 13.1 km/h SW 228 0 min 0 min 71 W/m 27.4 km/h
18.11.2019 08:30 4.8 C 85 % 1010.7 hPa 0.0 l/m 12.7 km/h W-SW 240 0 min 0 min 68 W/m 24.1 km/h
18.11.2019 08:25 4.8 C 85 % 1010.5 hPa 0.0 l/m 10.5 km/h SW 225 0 min 0 min 61 W/m 20.9 km/h
18.11.2019 08:20 4.7 C 86 % 1010.4 hPa 0.0 l/m 10.8 km/h SW 217 0 min 0 min 53 W/m 24.1 km/h
18.11.2019 08:15 4.7 C 86 % 1010.4 hPa 0.0 l/m 9.4 km/h SW 216 0 min 0 min 42 W/m 19.3 km/h
18.11.2019 08:10 4.6 C 86 % 1010.4 hPa 0.0 l/m 7.2 km/h W-SW 252 0 min 0 min 38 W/m 16.1 km/h
18.11.2019 08:05 4.5 C 87 % 1010.3 hPa 0.0 l/m 12.4 km/h SW 223 0 min 0 min 27 W/m 22.5 km/h
18.11.2019 08:00 4.4 C 87 % 1010.2 hPa 0.0 l/m 11.8 km/h W-SW 242 0 min 0 min 18 W/m 25.7 km/h
18.11.2019 07:55 4.4 C 87 % 1010.1 hPa 0.0 l/m 11.3 km/h S-SW 204 0 min 0 min 14 W/m 22.5 km/h
18.11.2019 07:50 4.3 C 88 % 1010.1 hPa 0.0 l/m 11.1 km/h SW 234 0 min 0 min 12 W/m 30.6 km/h
18.11.2019 07:45 4.3 C 88 % 1010.0 hPa 0.0 l/m 12.9 km/h S-SW 203 0 min 0 min 11 W/m 27.4 km/h
18.11.2019 07:40 4.2 C 89 % 1009.8 hPa 0.0 l/m 12.6 km/h W-SW 240 0 min 0 min 8 W/m 33.8 km/h
18.11.2019 07:35 4.1 C 89 % 1009.8 hPa 0.0 l/m 13.6 km/h W 262 0 min 0 min 6 W/m 25.7 km/h
18.11.2019 07:30 4.1 C 90 % 1009.7 hPa 0.0 l/m 8.2 km/h S 189 0 min 0 min 1 W/m 20.9 km/h
18.11.2019 07:25 4.1 C 90 % 1009.5 hPa 0.0 l/m 13.0 km/h W-SW 246 0 min 0 min 0 W/m 20.9 km/h
18.11.2019 07:20 4.1 C 90 % 1009.5 hPa 0.0 l/m 12.4 km/h SW 218 0 min 0 min 0 W/m 24.1 km/h
18.11.2019 07:15 4.1 C 90 % 1009.4 hPa 0.0 l/m 13.3 km/h SW 214 0 min 0 min 0 W/m 25.7 km/h
18.11.2019 07:10 4.0 C 91 % 1009.3 hPa 0.0 l/m 13.2 km/h W-NW 290 0 min 0 min 0 W/m 22.5 km/h
18.11.2019 07:05 4.0 C 91 % 1009.2 hPa 0.0 l/m 8.9 km/h S-SW 192 0 min 5 min 0 W/m 19.3 km/h
18.11.2019 07:00 4.0 C 91 % 1009.2 hPa 0.0 l/m 10.3 km/h W-SW 249 0 min 0 min 0 W/m 17.7 km/h
_ Min-Zeit 06:40 15:55 07:00 - 03:00 - - - - - 03:15
Minimum _ -0.4 C 72 % 1009.2 hPa - 0.0 km/h - - - - - 0.0 km/h
_ Max-Zeit 13:10 04:15 06:35 07:00 09:05 - - 08:50 07:05 13:10 09:05
Maximum _ 6.9 C 97 % 1017.7 hPa 0.0 l/m 14.6 km/h
SW
- - 5 min 5 min 353 W/m 37.0 km/h
W-SW
Durchschnitt _ 3.8 C 87 % 1014.4 hPa #0.0 l/m 5.5 km/h SW - #0 min. #5 min. 0 W/m 10.8 km/h